Time;durP1;ratioP1;P1;durP2;ratioP2;P2;SDS_P1;SDS_P2;PMS_P1;PMS_P2;Temp;Humidity;BMP_temperature;BMP_pressure;BME280_temperature;BME280_humidity;BME280_pressure;Samples;Min_cycle;Max_cycle;Signal;HPM_P1;HPM_P2
2022/09/04 00:02:37;;;;;;;1.17;0.85;;;15.40;81.30;;;;;;5059724;28;20078;-82
2022/09/04 00:05:29;;;;;;;1.05;0.75;;;15.40;81.50;;;;;;5064692;28;20062;-81
2022/09/04 00:08:00;;;;;;;0.82;0.70;;;15.30;81.40;;;;;;5059140;28;20017;-81
2022/09/04 00:10:42;;;;;;;1.08;0.93;;;15.30;82.30;;;;;;5058628;28;20052;-82
2022/09/04 00:13:20;;;;;;;4.43;0.90;;;15.20;82.50;;;;;;5061214;28;20029;-81
2022/09/04 00:15:58;;;;;;;0.70;0.70;;;15.10;83.30;;;;;;5055440;28;20487;-82
2022/09/04 00:18:36;;;;;;;0.50;0.50;;;15.10;83.80;;;;;;5052130;28;20048;-83
2022/09/04 00:21:12;;;;;;;2.10;0.80;;;15.10;83.30;;;;;;5059928;28;20083;-82
2022/09/04 00:23:52;;;;;;;0.65;0.65;;;14.90;84.50;;;;;;5060949;28;20044;-82
2022/09/04 00:26:56;;;;;;;0.80;0.65;;;14.80;85.30;;;;;;5059955;28;20133;-80
2022/09/04 00:29:50;;;;;;;1.23;0.80;;;14.90;84.40;;;;;;5057598;28;20515;-82
2022/09/04 00:32:34;;;;;;;3.85;1.02;;;14.90;85.50;;;;;;5062645;28;20115;-81
2022/09/04 00:35:09;;;;;;;0.85;0.80;;;14.80;85.90;;;;;;5057242;28;20032;-81
2022/09/04 00:37:42;;;;;;;0.82;0.80;;;14.80;86.70;;;;;;5057203;28;20040;-82
2022/09/04 00:40:51;;;;;;;1.65;0.85;;;14.70;86.90;;;;;;5058634;28;20020;-81
2022/09/04 00:43:41;;;;;;;1.45;0.90;;;14.60;87.20;;;;;;5055221;28;20074;-82
2022/09/04 00:46:31;;;;;;;0.80;0.80;;;14.60;88.10;;;;;;5060446;28;20024;-82
2022/09/04 00:49:31;;;;;;;1.35;0.68;;;14.60;87.50;;;;;;5063601;28;20055;-81
2022/09/04 00:52:24;;;;;;;0.70;0.70;;;14.60;88.30;;;;;;5052433;28;20021;-81
2022/09/04 00:55:27;;;;;;;2.58;0.60;;;14.60;87.50;;;;;;5054425;28;20403;-81
2022/09/04 00:58:22;;;;;;;2.55;0.98;;;14.50;88.90;;;;;;5055565;28;20098;-81
2022/09/04 01:00:48;;;;;;;0.98;0.60;;;14.40;90.00;;;;;;5058942;28;20039;-82
2022/09/04 01:03:36;;;;;;;6.38;1.25;;;14.40;88.60;;;;;;5060262;28;20108;-83
2022/09/04 01:06:34;;;;;;;0.85;0.57;;;14.40;89.70;;;;;;5058504;28;20074;-81
2022/09/04 01:09:31;;;;;;;1.80;1.00;;;14.30;90.30;;;;;;5059549;28;20028;-81
2022/09/04 01:12:20;;;;;;;0.70;0.60;;;14.30;89.50;;;;;;5061201;28;20115;-82
2022/09/04 01:15:02;;;;;;;1.25;0.90;;;14.40;90.00;;;;;;5061986;28;20016;-82
2022/09/04 01:17:42;;;;;;;0.85;0.60;;;14.50;89.40;;;;;;5053847;28;20039;-81
2022/09/04 01:20:36;;;;;;;0.85;0.60;;;14.50;89.20;;;;;;5060771;28;20032;-82
2022/09/04 01:23:33;;;;;;;1.85;0.95;;;14.60;87.90;;;;;;5061936;28;20396;-81
2022/09/04 01:26:19;;;;;;;1.58;1.25;;;14.70;88.90;;;;;;5049863;28;20445;-80
2022/09/04 01:29:11;;;;;;;1.05;0.73;;;14.80;87.20;;;;;;5060631;28;20231;-82
2022/09/04 01:31:59;;;;;;;1.95;0.88;;;14.80;87.20;;;;;;5057963;28;20060;-81
2022/09/04 01:34:39;;;;;;;0.70;0.70;;;14.90;87.90;;;;;;5058946;28;20041;-82
2022/09/04 01:37:24;;;;;;;1.75;0.68;;;14.80;87.20;;;;;;5054432;28;20029;-81
2022/09/04 01:40:02;;;;;;;1.40;0.80;;;14.70;86.90;;;;;;5056387;28;20155;-82
2022/09/04 01:42:43;;;;;;;4.28;2.10;;;14.70;87.30;;;;;;5059104;28;20032;-81
2022/09/04 01:45:09;;;;;;;1.95;1.60;;;14.60;87.30;;;;;;5060148;28;20051;-82
2022/09/04 01:47:45;;;;;;;3.70;0.93;;;14.60;87.70;;;;;;5056183;28;20029;-82
2022/09/04 01:50:18;;;;;;;3.38;1.60;;;14.50;88.30;;;;;;5062691;28;20114;-81
2022/09/04 01:53:05;;;;;;;3.25;1.10;;;14.50;89.30;;;;;;5056016;28;20395;-81
2022/09/04 01:55:37;;;;;;;1.45;0.98;;;14.50;88.60;;;;;;5059980;28;20028;-83
2022/09/04 01:58:47;;;;;;;1.40;1.10;;;14.40;88.90;;;;;;5053180;28;20070;-80
2022/09/04 02:01:37;;;;;;;0.80;0.52;;;14.50;89.10;;;;;;5048958;28;20040;-81
2022/09/04 02:04:06;;;;;;;3.53;1.98;;;14.40;89.70;;;;;;5061969;28;20115;-83
2022/09/04 02:07:12;;;;;;;1.40;0.88;;;14.30;89.50;;;;;;5065989;28;20025;-81
2022/09/04 02:09:40;;;;;;;1.58;1.10;;;14.30;89.40;;;;;;5060051;28;20032;-81
2022/09/04 02:12:36;;;;;;;2.40;1.05;;;14.30;89.60;;;;;;5058460;28;20057;-82
2022/09/04 02:15:35;;;;;;;4.18;1.23;;;14.30;89.00;;;;;;5061754;28;20040;-82
2022/09/04 02:18:26;;;;;;;2.42;1.08;;;14.20;89.60;;;;;;5061493;28;20094;-82
2022/09/04 02:21:34;;;;;;;12.60;6.17;;;14.10;90.20;;;;;;5064653;28;20037;-83
2022/09/04 02:24:21;;;;;;;3.13;1.20;;;14.10;90.20;;;;;;5061139;28;20037;-81
2022/09/04 02:26:54;;;;;;;2.78;1.17;;;14.00;90.60;;;;;;5063461;28;20043;-82
2022/09/04 02:29:48;;;;;;;2.63;1.17;;;13.90;90.90;;;;;;5065664;28;20071;-83
2022/09/04 02:32:55;;;;;;;0.60;0.60;;;13.90;90.60;;;;;;5049636;28;20029;-82
2022/09/04 02:35:32;;;;;;;1.35;0.90;;;13.90;90.80;;;;;;5061362;28;20094;-82
2022/09/04 02:38:30;;;;;;;2.15;0.75;;;13.90;90.90;;;;;;5064357;28;20081;-82
2022/09/04 02:41:27;;;;;;;7.30;2.60;;;13.80;91.00;;;;;;5062974;28;20036;-81
2022/09/04 02:44:20;;;;;;;4.53;1.98;;;13.80;91.20;;;;;;5060158;28;20021;-83
2022/09/04 02:47:05;;;;;;;2.20;0.90;;;13.80;91.70;;;;;;5054938;28;20033;-83
2022/09/04 02:50:00;;;;;;;1.00;0.90;;;13.70;91.60;;;;;;5063546;28;20040;-83
2022/09/04 02:53:02;;;;;;;4.63;1.90;;;13.70;92.00;;;;;;5056634;28;20446;-83
2022/09/04 02:56:07;;;;;;;1.48;1.20;;;13.80;91.50;;;;;;5052097;28;20090;-83
2022/09/04 02:58:57;;;;;;;3.45;1.63;;;13.80;91.10;;;;;;5059987;28;20036;-82
2022/09/04 03:01:50;;;;;;;0.98;0.88;;;13.80;91.80;;;;;;5060242;28;20029;-84
2022/09/04 03:04:33;;;;;;;17.60;6.55;;;13.80;91.20;;;;;;5064176;28;20080;-83
2022/09/04 03:07:11;;;;;;;3.42;1.85;;;13.80;91.20;;;;;;5054069;28;20128;-82
2022/09/04 03:09:46;;;;;;;1.70;0.90;;;13.70;91.90;;;;;;5060050;28;20042;-83
2022/09/04 03:12:26;;;;;;;1.00;0.90;;;13.60;92.10;;;;;;5063938;28;20021;-83
2022/09/04 03:15:26;;;;;;;0.63;0.63;;;13.60;91.90;;;;;;5064933;28;20036;-83
2022/09/04 03:18:00;;;;;;;4.68;0.82;;;13.50;92.40;;;;;;5057185;28;20035;-81
2022/09/04 03:20:28;;;;;;;0.80;0.57;;;13.40;92.50;;;;;;5064337;28;20059;-83
2022/09/04 03:23:06;;;;;;;1.35;0.75;;;13.40;92.50;;;;;;5062933;28;20434;-82
2022/09/04 03:25:37;;;;;;;0.77;0.77;;;13.30;92.90;;;;;;5058610;28;20025;-81
2022/09/04 03:28:04;;;;;;;0.70;0.70;;;13.30;93.20;;;;;;5055403;28;20043;-82
2022/09/04 03:30:33;;;;;;;0.70;0.60;;;13.20;93.30;;;;;;5061280;28;20077;-82
2022/09/04 03:33:13;;;;;;;0.52;0.52;;;13.20;93.70;;;;;;5056250;28;20024;-82
2022/09/04 03:35:53;;;;;;;0.68;0.50;;;13.30;93.60;;;;;;5063219;28;20048;-83
2022/09/04 03:38:32;;;;;;;0.70;0.60;;;13.20;93.20;;;;;;5054000;28;20060;-83
2022/09/04 03:41:33;;;;;;;0.75;0.75;;;13.20;94.10;;;;;;5064608;28;20246;-84
2022/09/04 03:44:21;;;;;;;0.90;0.75;;;13.10;93.70;;;;;;5055545;28;20111;-82
2022/09/04 03:47:03;;;;;;;0.75;0.50;;;13.10;94.00;;;;;;5064523;28;20420;-83
2022/09/04 03:49:50;;;;;;;0.43;0.43;;;13.10;94.00;;;;;;5064464;28;20024;-83
2022/09/04 03:52:31;;;;;;;0.65;0.65;;;13.10;94.10;;;;;;5061988;28;20031;-83
2022/09/04 03:55:12;;;;;;;;;;;13.00;95.00;;;;;;5064525;28;20055;-83
2022/09/04 03:57:40;;;;;;;0.55;0.55;;;12.90;95.10;;;;;;5037752;28;19908;-82
2022/09/04 04:00:19;;;;;;;0.70;0.60;;;12.90;95.00;;;;;;5061793;28;20090;-83
2022/09/04 04:03:03;;;;;;;1.15;0.70;;;12.90;94.90;;;;;;5052229;28;20395;-84
2022/09/04 04:06:07;;;;;;;1.38;0.90;;;12.80;96.40;;;;;;5066919;28;20060;-83
2022/09/04 04:08:35;;;;;;;2.95;1.40;;;12.80;95.60;;;;;;5056480;28;20025;-83
2022/09/04 04:11:37;;;;;;;3.63;1.20;;;12.70;96.00;;;;;;5058981;28;20074;-83
2022/09/04 04:14:36;;;;;;;5.10;1.38;;;12.70;96.00;;;;;;5056876;28;20028;-83
2022/09/04 04:17:26;;;;;;;6.50;1.80;;;12.60;96.90;;;;;;5056424;28;20158;-83
2022/09/04 04:20:19;;;;;;;1.65;1.10;;;12.50;96.50;;;;;;5060902;28;20040;-83
2022/09/04 04:23:17;;;;;;;2.25;1.63;;;12.50;97.30;;;;;;5061222;28;20038;-83
2022/09/04 04:26:02;;;;;;;3.03;0.70;;;12.40;97.30;;;;;;5062033;28;20032;-83
2022/09/04 04:28:37;;;;;;;0.60;0.60;;;12.40;97.60;;;;;;5057786;28;20564;-84
2022/09/04 04:31:19;;;;;;;0.80;0.80;;;12.40;98.10;;;;;;5058340;28;20033;-84
2022/09/04 04:34:04;;;;;;;2.03;1.13;;;12.30;99.40;;;;;;5059568;28;20506;-83
2022/09/04 04:36:47;;;;;;;0.60;0.60;;;12.40;99.40;;;;;;5055666;28;20036;-84
2022/09/04 04:39:23;;;;;;;0.93;0.82;;;12.40;99.20;;;;;;5061869;28;20098;-83
2022/09/04 04:42:14;;;;;;;1.52;1.05;;;12.50;99.90;;;;;;5059332;28;20040;-84
2022/09/04 04:48:11;;;;;;;2.10;1.25;;;12.40;99.90;;;;;;5065993;28;21051;-84
2022/09/04 04:51:08;;;;;;;9.07;4.30;;;12.30;99.90;;;;;;5059630;28;20810;-84
2022/09/04 04:53:52;;;;;;;17.30;7.85;;;12.30;99.90;;;;;;5049854;28;20033;-83
2022/09/04 04:56:22;;;;;;;20.67;7.28;;;12.20;99.90;;;;;;5054138;28;20055;-85
2022/09/04 04:59:23;;;;;;;11.43;4.18;;;12.20;99.90;;;;;;5061543;28;20387;-85
2022/09/04 05:02:07;;;;;;;;;;;12.30;99.90;;;;;;5060029;28;20036;-84
2022/09/04 05:05:12;;;;;;;8.13;2.47;;;12.30;99.90;;;;;;5056802;28;20031;-84
2022/09/04 05:07:59;;;;;;;1.95;1.20;;;12.20;99.90;;;;;;5055804;28;20033;-84
2022/09/04 05:10:38;;;;;;;88.93;32.53;;;12.20;99.90;;;;;;5059655;28;20597;-83
2022/09/04 05:13:25;;;;;;;81.18;24.92;;;12.20;99.90;;;;;;5058303;28;20510;-84
2022/09/04 05:16:04;;;;;;;20.35;8.85;;;12.30;99.90;;;;;;5051215;28;20451;-84
2022/09/04 05:18:48;;;;;;;80.35;31.90;;;12.40;99.90;;;;;;5056365;28;20075;-84
2022/09/04 05:21:36;;;;;;;36.08;12.73;;;12.50;99.90;;;;;;5055598;28;20044;-83
2022/09/04 05:24:09;;;;;;;78.60;26.65;;;12.50;99.90;;;;;;5061452;28;20028;-83
2022/09/04 05:26:35;;;;;;;15.68;4.75;;;12.50;99.90;;;;;;5063123;28;20024;-83
2022/09/04 05:29:11;;;;;;;8.48;3.55;;;12.50;99.90;;;;;;5055654;28;20098;-83
2022/09/04 05:32:21;;;;;;;11.38;4.05;;;12.50;99.90;;;;;;5059117;28;20224;-84
2022/09/04 05:34:52;;;;;;;16.70;5.63;;;12.60;99.90;;;;;;5045173;28;20165;-83
2022/09/04 05:37:28;;;;;;;9.68;5.40;;;12.70;99.90;;;;;;5056805;28;20435;-83
2022/09/04 05:40:21;;;;;;;14.82;5.90;;;12.70;99.90;;;;;;5056687;28;20100;-84
2022/09/04 05:42:59;;;;;;;1.70;1.10;;;12.80;99.90;;;;;;5057185;28;20032;-84
2022/09/04 05:45:51;;;;;;;1.75;0.70;;;13.00;99.90;;;;;;5063603;28;20124;-83
2022/09/04 05:48:40;;;;;;;;;;;13.00;99.90;;;;;;5060719;28;20104;-83
2022/09/04 05:51:44;;;;;;;0.70;0.70;;;13.00;99.70;;;;;;5061144;28;19908;-84
2022/09/04 05:54:34;;;;;;;1.90;0.60;;;13.20;99.30;;;;;;5058575;28;20029;-82
2022/09/04 05:57:10;;;;;;;1.02;0.73;;;13.20;98.60;;;;;;5059591;28;20040;-81
2022/09/04 06:00:00;;;;;;;0.70;0.60;;;13.40;98.50;;;;;;5054511;28;20033;-83
2022/09/04 06:02:54;;;;;;;2.45;0.75;;;13.50;97.10;;;;;;5057603;28;20439;-83
2022/09/04 06:05:30;;;;;;;1.13;0.77;;;13.60;97.10;;;;;;5054834;28;20112;-84
2022/09/04 06:08:27;;;;;;;1.17;1.08;;;13.70;96.80;;;;;;5059156;28;20036;-85
2022/09/04 06:11:03;;;;;;;1.08;0.90;;;13.80;96.60;;;;;;5059079;28;20051;-85
2022/09/04 06:14:11;;;;;;;0.55;0.55;;;13.90;96.30;;;;;;5057587;28;20021;-85
2022/09/04 06:16:56;;;;;;;1.67;0.52;;;13.90;96.80;;;;;;5061310;28;20500;-85
2022/09/04 06:19:43;;;;;;;1.35;1.05;;;13.90;96.80;;;;;;5057685;28;20032;-84
2022/09/04 06:22:38;;;;;;;2.72;0.73;;;14.00;97.10;;;;;;5061646;28;20036;-84
2022/09/04 06:25:21;;;;;;;1.05;0.70;;;14.20;95.10;;;;;;5051091;28;20029;-83
2022/09/04 06:28:15;;;;;;;1.10;0.80;;;14.30;95.00;;;;;;5057510;28;20036;-79
2022/09/04 06:30:50;;;;;;;0.65;0.65;;;14.30;95.30;;;;;;5056793;28;20055;-81
2022/09/04 06:33:31;;;;;;;0.70;0.70;;;14.40;95.20;;;;;;5058377;28;20020;-74
2022/09/04 06:36:28;;;;;;;1.90;0.73;;;14.50;94.60;;;;;;5060248;28;20178;-72
2022/09/04 06:39:19;;;;;;;1.33;0.90;;;14.60;94.10;;;;;;5048016;28;20043;-76
2022/09/04 06:42:20;;;;;;;1.00;0.70;;;14.60;94.60;;;;;;5060039;28;20113;-74
2022/09/04 06:45:03;;;;;;;1.35;0.98;;;14.70;94.30;;;;;;5021480;28;20048;-73
2022/09/04 06:47:44;;;;;;;1.80;0.73;;;14.80;93.90;;;;;;5047857;28;20033;-73
2022/09/04 06:50:34;;;;;;;0.60;0.60;;;14.90;94.30;;;;;;5059344;28;20024;-74
2022/09/04 06:53:13;;;;;;;0.73;0.73;;;14.90;93.80;;;;;;5062178;28;20083;-73
2022/09/04 06:55:56;;;;;;;1.08;0.77;;;14.90;93.30;;;;;;5050474;28;20110;-75
2022/09/04 06:58:50;;;;;;;0.95;0.90;;;14.90;94.20;;;;;;5061212;28;20698;-74
2022/09/04 07:01:24;;;;;;;1.33;1.08;;;15.00;93.40;;;;;;5060813;28;20021;-74
2022/09/04 07:04:09;;;;;;;1.33;0.88;;;15.10;93.10;;;;;;5050698;28;20032;-74
2022/09/04 07:06:57;;;;;;;1.15;1.02;;;15.20;93.30;;;;;;5059731;28;20028;-74
2022/09/04 07:09:45;;;;;;;1.65;0.90;;;15.30;94.80;;;;;;5055766;28;20033;-74
2022/09/04 07:12:38;;;;;;;2.58;0.90;;;15.40;93.70;;;;;;5057859;28;20024;-74
2022/09/04 07:15:29;;;;;;;1.13;0.80;;;15.50;93.70;;;;;;5052734;28;20021;-74
2022/09/04 07:17:55;;;;;;;1.00;0.95;;;15.50;93.60;;;;;;5058409;28;20020;-77
2022/09/04 07:20:45;;;;;;;2.22;1.20;;;15.60;93.20;;;;;;5054271;28;20033;-76
2022/09/04 07:23:32;;;;;;;1.83;1.20;;;15.70;93.70;;;;;;5066290;28;20033;-76
2022/09/04 07:26:10;;;;;;;2.10;1.00;;;15.80;93.00;;;;;;5056153;28;20077;-75
2022/09/04 07:29:08;;;;;;;2.25;1.30;;;15.90;93.60;;;;;;5057827;28;20045;-75
2022/09/04 07:31:52;;;;;;;1.85;1.20;;;16.00;92.80;;;;;;5058191;28;20029;-76
2022/09/04 07:34:31;;;;;;;2.08;1.00;;;16.10;93.40;;;;;;5058125;28;20035;-76
2022/09/04 07:37:23;;;;;;;1.35;0.90;;;16.10;93.60;;;;;;5059041;28;20184;-75
2022/09/04 07:39:59;;;;;;;1.98;1.00;;;16.30;92.50;;;;;;5061828;28;20643;-74
2022/09/04 07:42:28;;;;;;;2.33;1.08;;;16.40;92.70;;;;;;5062045;28;20513;-74
2022/09/04 07:45:26;;;;;;;1.88;1.40;;;16.50;93.60;;;;;;5055676;28;20055;-76
2022/09/04 07:48:10;;;;;;;1.98;1.27;;;16.60;93.00;;;;;;5057939;28;20151;-78
2022/09/04 07:50:43;;;;;;;3.90;1.10;;;16.70;93.20;;;;;;5060724;28;20025;-75
2022/09/04 07:53:48;;;;;;;2.28;1.33;;;16.80;92.70;;;;;;5049784;28;20032;-77
2022/09/04 07:56:33;;;;;;;1.15;1.00;;;17.00;93.50;;;;;;5061780;28;20033;-78
2022/09/04 07:59:24;;;;;;;1.73;1.35;;;17.20;92.70;;;;;;5053242;28;20037;-74
2022/09/04 08:02:17;;;;;;;1.42;1.20;;;17.30;92.10;;;;;;5060172;28;20166;-75
2022/09/04 08:04:55;;;;;;;1.75;1.20;;;17.50;91.40;;;;;;5066204;28;20029;-75
2022/09/04 08:07:32;;;;;;;1.92;1.30;;;17.60;90.70;;;;;;5062990;28;20056;-74
2022/09/04 08:10:30;;;;;;;2.30;1.60;;;17.70;90.70;;;;;;5062508;28;20502;-74
2022/09/04 08:13:07;;;;;;;2.75;1.27;;;17.80;90.50;;;;;;5064682;28;20386;-78
2022/09/04 08:15:49;;;;;;;1.98;1.33;;;17.90;90.40;;;;;;5056959;28;20028;-75
2022/09/04 08:18:40;;;;;;;3.33;2.08;;;18.10;90.50;;;;;;5056930;28;20035;-78
2022/09/04 08:21:27;;;;;;;1.42;1.25;;;18.20;89.90;;;;;;5059571;28;20016;-75
2022/09/04 08:24:15;;;;;;;2.03;1.52;;;18.30;90.00;;;;;;5055772;28;20020;-74
2022/09/04 08:27:08;;;;;;;2.55;1.73;;;18.50;91.10;;;;;;5062064;28;20033;-74
2022/09/04 08:29:52;;;;;;;2.38;1.42;;;18.70;88.60;;;;;;5061886;28;20468;-74
2022/09/04 08:32:29;;;;;;;1.27;1.17;;;18.80;88.30;;;;;;5058760;28;20025;-75
2022/09/04 08:35:32;;;;;;;5.07;1.50;;;18.90;85.80;;;;;;5055797;28;20047;-74
2022/09/04 08:38:03;;;;;;;1.42;1.30;;;18.90;88.60;;;;;;5057066;28;20186;-75
2022/09/04 08:40:56;;;;;;;1.75;1.20;;;18.80;88.70;;;;;;5061337;28;20035;-74
2022/09/04 08:43:56;;;;;;;1.30;1.15;;;19.10;88.10;;;;;;5052512;28;20115;-74
2022/09/04 08:46:48;;;;;;;1.40;1.15;;;19.30;86.70;;;;;;5058489;28;20120;-75
2022/09/04 08:49:52;;;;;;;1.20;1.10;;;19.40;85.20;;;;;;5059115;28;20049;-75
2022/09/04 08:52:39;;;;;;;2.50;1.38;;;19.50;84.90;;;;;;5055780;28;20017;-78
2022/09/04 08:55:48;;;;;;;1.40;1.30;;;19.60;84.80;;;;;;5053234;28;20047;-77
2022/09/04 08:58:49;;;;;;;1.60;1.23;;;19.70;85.80;;;;;;5048570;28;20507;-76
2022/09/04 09:01:33;;;;;;;2.15;1.58;;;19.90;85.70;;;;;;5051085;28;20035;-76
2022/09/04 09:04:38;;;;;;;1.65;1.30;;;20.00;84.10;;;;;;5055501;28;20147;-80
2022/09/04 09:07:41;;;;;;;1.77;1.20;;;20.10;81.50;;;;;;5064779;28;20101;-76
2022/09/04 09:10:09;;;;;;;1.38;1.20;;;20.30;81.00;;;;;;5057493;28;20048;-75
2022/09/04 09:13:03;;;;;;;2.55;1.23;;;20.40;80.00;;;;;;5062059;28;20025;-75
2022/09/04 09:16:17;;;;;;;6.40;1.67;;;20.50;82.00;;;;;;5057595;28;20028;-74
2022/09/04 09:19:09;;;;;;;1.83;1.30;;;20.60;82.50;;;;;;5023233;28;20029;-74
2022/09/04 09:21:52;;;;;;;1.67;1.40;;;20.80;79.70;;;;;;5056454;28;20536;-74
2022/09/04 09:25:08;;;;;;;1.65;1.17;;;20.90;78.90;;;;;;5064755;28;20027;-75
2022/09/04 09:28:16;;;;;;;2.10;1.27;;;21.00;77.80;;;;;;4993992;28;20053;-75
2022/09/04 09:31:06;;;;;;;1.23;1.02;;;21.00;75.50;;;;;;5060902;28;20483;-77
2022/09/04 09:34:27;;;;;;;1.30;1.05;;;21.10;75.60;;;;;;5061298;28;20158;-78
2022/09/04 09:37:19;;;;;;;1.33;1.20;;;21.20;75.30;;;;;;5002332;28;20464;-76
2022/09/04 09:40:22;;;;;;;1.48;1.08;;;21.50;73.50;;;;;;5057103;28;20332;-77
2022/09/04 09:43:19;;;;;;;1.88;1.20;;;21.60;75.50;;;;;;5055167;28;20645;-76
2022/09/04 09:46:13;;;;;;;1.63;1.48;;;21.70;72.40;;;;;;5055313;28;20032;-78
2022/09/04 09:49:16;;;;;;;1.35;1.25;;;21.70;72.40;;;;;;5049058;28;20044;-76
2022/09/04 09:52:00;;;;;;;1.75;1.30;;;21.70;71.30;;;;;;4996460;28;20037;-84
2022/09/04 09:54:54;;;;;;;1.75;1.27;;;21.90;72.20;;;;;;4999600;28;20061;-77
2022/09/04 09:57:58;;;;;;;1.40;1.27;;;22.10;73.40;;;;;;5044862;28;20043;-78
2022/09/04 10:00:35;;;;;;;1.77;1.15;;;22.30;69.20;;;;;;5053667;28;20036;-79
2022/09/04 10:03:00;;;;;;;2.90;1.70;;;22.40;70.10;;;;;;5043238;28;20025;-78
2022/09/04 10:06:04;;;;;;;1.67;1.05;;;22.50;68.30;;;;;;5058351;28;20028;-77
2022/09/04 10:08:51;;;;;;;1.63;1.15;;;22.40;66.80;;;;;;5060208;28;20039;-76
2022/09/04 10:11:40;;;;;;;2.13;1.30;;;22.30;68.30;;;;;;5060985;28;20063;-77
2022/09/04 10:14:44;;;;;;;4.45;1.50;;;22.50;67.00;;;;;;5061385;28;20748;-76
2022/09/04 10:17:47;;;;;;;2.33;1.70;;;22.70;65.90;;;;;;5049171;28;20033;-77
2022/09/04 10:20:30;;;;;;;1.30;1.20;;;22.90;66.40;;;;;;4995998;28;20033;-77
2022/09/04 10:23:41;;;;;;;4.70;1.20;;;23.10;66.90;;;;;;5065467;28;20017;-77
2022/09/04 10:26:34;;;;;;;1.75;1.10;;;23.50;66.30;;;;;;5066830;28;20384;-77
2022/09/04 10:29:18;;;;;;;2.72;1.50;;;23.60;64.60;;;;;;5061895;28;20049;-78
2022/09/04 10:31:56;;;;;;;1.25;1.10;;;23.50;63.10;;;;;;5061792;28;20650;-77
2022/09/04 10:34:46;;;;;;;2.45;1.30;;;23.70;62.60;;;;;;5050865;28;20036;-78
2022/09/04 10:37:32;;;;;;;1.30;1.20;;;23.60;61.20;;;;;;5056962;28;20051;-77
2022/09/04 10:40:34;;;;;;;1.55;1.13;;;23.80;61.50;;;;;;5057281;28;20091;-77
2022/09/04 10:43:26;;;;;;;4.57;1.23;;;23.90;61.20;;;;;;5065732;28;20056;-77
2022/09/04 10:46:16;;;;;;;1.77;1.30;;;24.10;61.60;;;;;;5050450;28;20471;-76
2022/09/04 10:49:05;;;;;;;2.10;1.20;;;24.20;59.50;;;;;;5065385;28;20025;-77
2022/09/04 10:52:12;;;;;;;1.73;1.23;;;24.60;61.90;;;;;;5058365;28;20479;-77
2022/09/04 10:55:03;;;;;;;1.52;1.33;;;24.90;58.90;;;;;;5035574;28;20037;-77
2022/09/04 10:57:51;;;;;;;1.50;1.23;;;25.10;59.20;;;;;;5058893;28;20040;-77
2022/09/04 11:00:20;;;;;;;1.90;1.30;;;24.90;56.60;;;;;;5070399;28;20530;-77
2022/09/04 11:03:03;;;;;;;1.52;1.10;;;24.90;56.00;;;;;;5055714;28;20037;-77
2022/09/04 11:05:50;;;;;;;1.23;1.02;;;25.10;56.90;;;;;;5068311;28;20514;-78
2022/09/04 11:08:43;;;;;;;1.58;1.10;;;25.30;57.40;;;;;;5050456;28;20103;-78
2022/09/04 11:11:31;;;;;;;1.45;1.00;;;25.60;55.30;;;;;;5061843;28;20062;-77
2022/09/04 11:14:28;;;;;;;1.20;1.10;;;26.10;55.70;;;;;;5052551;28;20155;-84
2022/09/04 11:17:17;;;;;;;1.40;0.90;;;27.00;54.50;;;;;;5059041;28;20027;-78
2022/09/04 11:20:16;;;;;;;1.85;1.33;;;30.30;48.50;;;;;;5049901;28;20385;-82
2022/09/04 11:23:19;;;;;;;1.98;1.20;;;32.10;42.00;;;;;;5058959;28;20067;-81
2022/09/04 11:26:27;;;;;;;2.17;1.55;;;31.00;42.20;;;;;;5059777;28;20558;-81
2022/09/04 11:28:58;;;;;;;2.88;1.17;;;;;;;;;;5050691;28;20503;-80
2022/09/04 11:31:49;;;;;;;2.60;1.30;;;;;;;;;;5059300;28;20032;-80
2022/09/04 11:34:18;;;;;;;1.20;0.90;;;;;;;;;;5050036;28;20062;-81
2022/09/04 11:37:03;;;;;;;1.08;0.98;;;;;;;;;;5049263;28;20040;-82
2022/09/04 11:39:42;;;;;;;1.30;1.20;;;;;;;;;;5059623;28;20020;-80
2022/09/04 11:42:27;;;;;;;1.08;0.98;;;30.60;45.20;;;;;;5060220;28;20041;-79
2022/09/04 11:45:29;;;;;;;1.27;1.15;;;31.10;44.10;;;;;;5059017;28;20720;-83
2022/09/04 11:48:12;;;;;;;3.10;1.15;;;32.30;42.30;;;;;;5054804;28;20063;-84
2022/09/04 11:50:56;;;;;;;2.88;1.55;;;32.30;41.90;;;;;;5056596;28;20028;-83
2022/09/04 11:53:27;;;;;;;1.48;1.30;;;34.50;40.30;;;;;;5055503;28;20064;-84
2022/09/04 11:56:01;;;;;;;;;;;36.20;36.80;;;;;;5061800;28;20021;-79
2022/09/04 11:58:35;;;;;;;2.15;1.35;;;37.70;35.50;;;;;;5057375;28;19908;-80
2022/09/04 12:01:14;;;;;;;3.13;1.50;;;36.60;34.10;;;;;;5062153;28;20021;-80
2022/09/04 12:03:43;;;;;;;6.80;1.45;;;37.10;34.10;;;;;;5056134;28;20033;-82
2022/09/04 12:06:21;;;;;;;1.25;1.15;;;;;;;;;;5058057;28;20495;-80
2022/09/04 12:09:08;;;;;;;3.72;1.35;;;37.70;31.40;;;;;;5055903;28;20060;-77
2022/09/04 12:11:59;;;;;;;2.45;1.50;;;38.60;31.60;;;;;;5060966;28;20024;-78
2022/09/04 12:14:54;;;;;;;1.55;1.23;;;37.40;32.30;;;;;;5024370;28;20541;-77
2022/09/04 12:17:32;;;;;;;1.48;1.23;;;37.60;33.30;;;;;;5050013;28;20063;-76
2022/09/04 12:20:06;;;;;;;2.05;1.30;;;38.70;31.70;;;;;;5061755;28;20056;-75
2022/09/04 12:22:49;;;;;;;3.10;1.40;;;40.30;30.00;;;;;;5062366;28;20250;-76
2022/09/04 12:25:32;;;;;;;2.13;1.40;;;40.40;29.90;;;;;;5059913;28;20033;-81
2022/09/04 12:28:36;;;;;;;2.83;1.67;;;40.60;30.00;;;;;;5056936;28;20084;-84
2022/09/04 12:31:12;;;;;;;1.80;1.33;;;40.40;29.00;;;;;;5055901;28;20059;-75
2022/09/04 12:33:56;;;;;;;1.55;1.20;;;39.70;30.60;;;;;;5042225;28;20028;-77
2022/09/04 12:36:43;;;;;;;1.33;1.23;;;40.10;30.00;;;;;;5055060;28;20116;-78
2022/09/04 12:39:40;;;;;;;1.13;1.08;;;42.90;27.50;;;;;;5054904;28;20032;-79
2022/09/04 12:42:27;;;;;;;1.40;1.30;;;42.60;28.10;;;;;;5053587;28;20020;-78
2022/09/04 12:45:25;;;;;;;1.77;1.25;;;42.10;28.20;;;;;;5055948;28;20021;-80
2022/09/04 12:48:34;;;;;;;2.20;1.55;;;42.70;28.30;;;;;;5058800;28;20322;-85
2022/09/04 12:51:10;;;;;;;1.27;1.02;;;43.60;28.20;;;;;;5061831;28;20032;-83
2022/09/04 12:54:02;;;;;;;2.47;1.50;;;43.20;27.40;;;;;;5053344;28;20024;-83
2022/09/04 12:56:52;;;;;;;1.83;1.35;;;;;;;;;;5050537;28;20036;-83
2022/09/04 12:59:37;;;;;;;1.38;1.20;;;44.80;25.70;;;;;;5052380;28;20086;-82
2022/09/04 13:02:14;;;;;;;1.45;1.27;;;45.10;26.80;;;;;;5058190;28;20670;-84
2022/09/04 13:05:25;;;;;;;2.08;1.33;;;43.00;26.40;;;;;;5033091;28;20075;-79
2022/09/04 13:08:13;;;;;;;2.17;1.33;;;42.00;28.20;;;;;;5052704;28;20101;-74
2022/09/04 13:10:47;;;;;;;1.35;1.20;;;44.10;26.50;;;;;;5053532;28;20033;-78
2022/09/04 13:13:16;;;;;;;1.98;1.45;;;;;;;;;;5057084;28;20024;-82
2022/09/04 13:15:58;;;;;;;1.20;1.10;;;38.10;29.10;;;;;;5056992;28;20043;-78
2022/09/04 13:18:59;;;;;;;2.38;1.30;;;35.90;31.00;;;;;;5053943;28;20040;-77
2022/09/04 13:21:32;;;;;;;;;;;32.80;36.90;;;;;;5052354;28;20032;-79
2022/09/04 13:23:57;;;;;;;1.65;1.20;;;38.00;32.30;;;;;;5061718;28;20014;-77
2022/09/04 13:26:51;;;;;;;1.35;1.25;;;41.80;29.30;;;;;;5060487;28;20036;-78
2022/09/04 13:29:25;;;;;;;1.13;1.02;;;42.80;27.60;;;;;;5062869;28;20045;-80
2022/09/04 13:31:58;;;;;;;1.52;1.10;;;42.80;26.90;;;;;;5060453;28;20681;-84
2022/09/04 13:34:41;;;;;;;1.83;1.27;;;38.50;29.00;;;;;;5064182;28;20480;-78
2022/09/04 13:37:28;;;;;;;1.48;1.30;;;35.30;34.00;;;;;;5038274;28;20029;-80
2022/09/04 13:40:14;;;;;;;2.55;1.50;;;;;;;;;;5052300;28;20497;-79
2022/09/04 13:43:02;;;;;;;2.13;1.38;;;;;;;;;;5057411;28;20033;-78
2022/09/04 13:45:29;;;;;;;1.55;1.33;;;;;;;;;;5052035;28;20032;-76
2022/09/04 13:47:57;;;;;;;1.27;1.17;;;;;;;;;;5056445;28;20690;-76
2022/09/04 13:50:28;;;;;;;1.38;1.17;;;;;;;;;;5052658;28;20021;-76
2022/09/04 13:53:01;;;;;;;1.70;1.25;;;;;;;;;;5055696;28;20081;-76
2022/09/04 13:55:30;;;;;;;5.20;1.20;;;;;;;;;;5059211;28;20052;-76
2022/09/04 13:57:56;;;;;;;1.45;1.33;;;;;;;;;;5061870;28;20037;-75
2022/09/04 14:00:24;;;;;;;4.22;1.63;;;;;;;;;;5065665;28;20407;-76
2022/09/04 14:02:54;;;;;;;1.70;1.10;;;;;;;;;;5055732;28;20049;-76
2022/09/04 14:05:21;;;;;;;1.73;1.38;;;;;;;;;;5060495;28;20118;-76
2022/09/04 14:08:00;;;;;;;1.80;1.20;;;;;;;;;;5064445;28;20048;-75
2022/09/04 14:10:45;;;;;;;1.60;1.50;;;;;;;;;;5051085;28;20069;-75
2022/09/04 14:13:29;;;;;;;1.83;1.13;;;;;;;;;;5063854;28;20021;-77
2022/09/04 14:15:58;;;;;;;1.98;1.35;;;;;;;;;;5062246;28;20040;-76
2022/09/04 14:18:33;;;;;;;2.53;1.50;;;;;;;;;;5061619;28;20038;-77
2022/09/04 14:21:11;;;;;;;1.25;1.08;;;31.10;36.90;;;;;;5051713;28;20029;-78
2022/09/04 14:24:02;;;;;;;1.30;1.17;;;31.30;37.40;;;;;;5055748;28;20033;-77
2022/09/04 14:27:06;;;;;;;1.50;1.20;;;37.90;30.90;;;;;;5056514;28;20094;-76
2022/09/04 14:29:49;;;;;;;3.10;1.50;;;40.10;28.10;;;;;;5037113;28;20028;-76
2022/09/04 14:32:22;;;;;;;1.50;1.40;;;37.30;29.80;;;;;;5051619;28;20096;-76
2022/09/04 14:35:09;;;;;;;1.77;1.60;;;33.20;35.50;;;;;;5057972;28;20024;-77
2022/09/04 14:38:19;;;;;;;1.52;1.40;;;31.60;36.40;;;;;;5059738;28;20415;-77
2022/09/04 14:41:00;;;;;;;1.27;1.15;;;35.20;48.90;;;;;;4997047;28;20032;-75